createdAt,value
2019-03-10T00:00:00.780Z,17.97
2019-03-10T00:04:07.282Z,15.00
2019-03-10T00:08:12.171Z,14.13
2019-03-10T00:12:17.082Z,20.27
2019-03-10T00:16:21.974Z,20.37
2019-03-10T00:20:26.873Z,16.10
2019-03-10T00:24:31.787Z,17.30
2019-03-10T00:28:36.676Z,17.00
2019-03-10T00:32:41.573Z,18.10
2019-03-10T00:36:46.480Z,21.70
2019-03-10T00:40:59.489Z,19.23
2019-03-10T00:45:25.477Z,14.47
2019-03-10T00:50:02.129Z,14.77
2019-03-10T00:54:07.016Z,12.83
2019-03-10T00:58:11.921Z,12.33
2019-03-10T01:02:16.819Z,17.27
2019-03-10T01:06:21.716Z,15.13
2019-03-10T01:10:26.626Z,15.27
2019-03-10T01:14:31.593Z,21.30
2019-03-10T01:18:37.637Z,16.37
2019-03-10T01:22:42.534Z,17.53
2019-03-10T01:26:47.434Z,17.13
2019-03-10T01:31:11.665Z,14.33
2019-03-10T01:35:19.445Z,21.23
2019-03-10T01:39:24.347Z,18.70
2019-03-10T01:43:29.249Z,18.03
2019-03-10T01:47:34.143Z,16.30
2019-03-10T01:51:39.044Z,21.17
2019-03-10T01:55:43.937Z,25.77
2019-03-10T01:59:48.832Z,18.70
2019-03-10T02:03:53.732Z,23.73
2019-03-10T02:07:58.632Z,18.90
2019-03-10T02:12:03.522Z,22.60
2019-03-10T02:16:08.475Z,20.97
2019-03-10T02:20:16.066Z,24.53
2019-03-10T02:24:24.085Z,19.43
2019-03-10T02:28:27.569Z,15.47
2019-03-10T02:32:32.475Z,17.63
2019-03-10T02:36:37.358Z,15.87
2019-03-10T02:40:43.466Z,20.83
2019-03-10T02:44:48.548Z,15.00
2019-03-10T02:48:53.450Z,20.80
2019-03-10T02:52:58.366Z,20.43
2019-03-10T02:57:03.238Z,19.80
2019-03-10T03:01:08.141Z,29.80
2019-03-10T03:05:13.300Z,19.83
2019-03-10T03:09:18.208Z,22.13
2019-03-10T03:13:23.111Z,20.67
2019-03-10T03:17:28.001Z,15.33
2019-03-10T03:21:42.856Z,15.90
2019-03-10T03:25:39.495Z,12.87
2019-03-10T03:29:44.389Z,19.53
2019-03-10T03:33:49.289Z,17.67
2019-03-10T03:37:54.196Z,16.07
2019-03-10T03:41:59.096Z,19.67
2019-03-10T03:46:03.998Z,21.20
2019-03-10T03:50:08.896Z,21.60
2019-03-10T03:54:13.804Z,19.87
2019-03-10T03:58:18.730Z,17.53
2019-03-10T04:02:25.227Z,18.67
2019-03-10T04:06:30.151Z,28.37
2019-03-10T04:10:35.025Z,20.80
2019-03-10T04:14:39.924Z,23.13
2019-03-10T04:18:44.821Z,17.30
2019-03-10T04:22:49.709Z,19.10
2019-03-10T04:26:54.608Z,25.50
2019-03-10T04:30:59.505Z,17.70
2019-03-10T04:35:05.045Z,21.10
2019-03-10T04:39:09.967Z,22.60
2019-03-10T04:43:14.838Z,18.87
2019-03-10T04:47:19.730Z,11.43
2019-03-10T04:51:24.624Z,17.23
2019-03-10T04:55:46.462Z,22.73
2019-03-10T04:59:51.435Z,23.83
2019-03-10T05:03:56.325Z,17.63
2019-03-10T05:08:01.226Z,17.20
2019-03-10T05:12:06.120Z,16.00
2019-03-10T05:16:11.030Z,15.03
2019-03-10T05:20:15.929Z,13.67
2019-03-10T05:24:20.818Z,14.90
2019-03-10T05:28:25.722Z,14.73
2019-03-10T05:32:30.618Z,14.63
2019-03-10T05:36:35.523Z,23.43
2019-03-10T05:40:40.457Z,23.87
2019-03-10T05:44:45.305Z,12.63
2019-03-10T05:48:50.202Z,17.73
2019-03-10T05:52:55.106Z,13.37
2019-03-10T05:57:00.000Z,12.10
2019-03-10T06:01:04.897Z,23.40
2019-03-10T06:05:09.784Z,16.27
2019-03-10T06:09:14.684Z,11.80
2019-03-10T06:13:19.583Z,18.90
2019-03-10T06:17:24.488Z,15.53
2019-03-10T06:21:29.394Z,16.97
2019-03-10T06:25:35.191Z,12.27
2019-03-10T06:29:40.068Z,17.50
2019-03-10T06:33:46.041Z,11.30
2019-03-10T06:37:50.944Z,9.40
2019-03-10T06:41:56.776Z,15.43
2019-03-10T06:46:01.660Z,10.37
2019-03-10T06:50:12.088Z,8.73
2019-03-10T06:54:16.194Z,6.37
2019-03-10T06:58:21.082Z,5.17
2019-03-10T07:02:25.971Z,5.27
2019-03-10T07:06:30.847Z,7.27
2019-03-10T07:10:35.737Z,8.90
2019-03-10T07:14:40.633Z,7.00
2019-03-10T07:18:45.519Z,3.77
2019-03-10T07:22:50.417Z,1.73
2019-03-10T07:26:55.291Z,3.20
2019-03-10T07:31:19.946Z,1.80
2019-03-10T07:35:38.714Z,3.07
2019-03-10T07:39:45.430Z,8.70
2019-03-10T07:43:51.967Z,3.77
2019-03-10T07:47:58.507Z,2.60
2019-03-10T07:52:07.685Z,2.27
2019-03-10T07:56:16.923Z,2.97
2019-03-10T08:00:32.205Z,2.53
2019-03-10T08:04:54.871Z,4.13
2019-03-10T08:09:01.400Z,2.83
2019-03-10T08:13:15.247Z,1.50
2019-03-10T08:17:27.502Z,3.03
2019-03-10T08:21:37.259Z,4.23
2019-03-10T08:25:43.801Z,2.73
2019-03-10T08:30:05.627Z,1.33
2019-03-10T08:34:17.907Z,4.67
2019-03-10T08:38:33.422Z,4.07
2019-03-10T08:42:39.955Z,3.73
2019-03-10T08:46:46.494Z,2.80
2019-03-10T08:50:53.040Z,2.53
2019-03-10T08:55:02.663Z,4.63
2019-03-10T08:59:25.551Z,4.53
2019-03-10T09:03:32.079Z,0.73
2019-03-10T09:07:38.623Z,4.97
2019-03-10T09:11:57.317Z,2.07
2019-03-10T09:16:09.829Z,2.50
2019-03-10T09:20:25.380Z,4.40
2019-03-10T09:24:40.606Z,3.23
2019-03-10T09:29:03.460Z,6.73
2019-03-10T09:33:16.075Z,1.73
2019-03-10T09:37:39.047Z,1.30
2019-03-10T09:41:54.246Z,0.80
2019-03-10T09:46:03.933Z,1.93
2019-03-10T09:50:12.661Z,2.23
2019-03-10T09:54:28.208Z,0.23
2019-03-10T09:58:34.746Z,0.47
2019-03-10T10:02:41.349Z,1.30
2019-03-10T10:06:47.832Z,0.60
2019-03-10T10:10:54.445Z,0.90
2019-03-10T10:15:09.750Z,0.60
2019-03-10T10:19:19.014Z,1.00
2019-03-10T10:23:25.542Z,0.10
2019-03-10T10:27:38.052Z,2.30
2019-03-10T10:31:47.249Z,0.30
2019-03-10T10:35:59.742Z,0.53
2019-03-10T10:40:08.531Z,0.53
2019-03-10T10:44:17.470Z,3.77
2019-03-10T10:48:29.759Z,2.40
2019-03-10T10:52:52.142Z,1.17
2019-03-10T10:57:01.616Z,0.40
2019-03-10T11:01:10.026Z,1.77
2019-03-10T11:05:32.540Z,1.00
2019-03-10T11:09:45.106Z,1.83
2019-03-10T11:13:54.602Z,1.70
2019-03-10T11:18:19.539Z,6.27
2019-03-10T11:22:42.330Z,2.43
2019-03-10T11:26:51.655Z,1.47
2019-03-10T11:31:14.667Z,1.60
2019-03-10T11:35:27.155Z,1.10
2019-03-10T11:39:42.806Z,2.67
2019-03-10T11:43:51.852Z,2.20
2019-03-10T11:48:07.120Z,1.87
2019-03-10T11:52:13.667Z,3.97
2019-03-10T11:56:22.898Z,2.30
2019-03-10T12:00:29.460Z,4.43
2019-03-10T12:04:44.708Z,1.53
2019-03-10T12:09:03.303Z,4.27
2019-03-10T12:13:08.843Z,2.00
2019-03-10T12:17:13.734Z,1.20
2019-03-10T12:21:18.640Z,2.57
2019-03-10T12:25:23.537Z,3.77
2019-03-10T12:29:28.441Z,4.73
2019-03-10T12:33:33.335Z,4.23
2019-03-10T12:37:38.224Z,4.53
2019-03-10T12:41:43.118Z,6.47
2019-03-10T12:45:48.017Z,4.90
2019-03-10T12:49:52.909Z,7.20
2019-03-10T12:53:57.805Z,3.27
2019-03-10T12:58:04.214Z,3.27
2019-03-10T13:02:09.104Z,7.37
2019-03-10T13:06:14.000Z,4.00
2019-03-10T13:10:18.968Z,4.40
2019-03-10T13:14:23.882Z,3.90
2019-03-10T13:18:28.781Z,7.67
2019-03-10T13:22:33.669Z,4.77
2019-03-10T13:26:38.575Z,8.27
2019-03-10T13:30:43.539Z,7.10
2019-03-10T13:34:48.371Z,11.23
2019-03-10T13:38:53.270Z,4.23
2019-03-10T13:42:58.167Z,13.83
2019-03-10T13:47:03.061Z,8.60
2019-03-10T13:51:07.961Z,11.53
2019-03-10T13:55:12.937Z,11.00
2019-03-10T13:59:17.843Z,7.53
2019-03-10T14:03:22.742Z,11.60
2019-03-10T14:07:27.638Z,9.87
2019-03-10T14:11:32.547Z,11.53
2019-03-10T14:15:37.451Z,9.73
2019-03-10T14:19:42.354Z,8.63
2019-03-10T14:23:47.240Z,11.10
2019-03-10T14:27:52.149Z,6.47
2019-03-10T14:31:57.041Z,10.20
2019-03-10T14:36:01.951Z,12.93
2019-03-10T14:40:17.738Z,9.37
2019-03-10T14:44:22.622Z,6.60
2019-03-10T14:48:27.521Z,3.90
2019-03-10T14:52:32.420Z,6.37
2019-03-10T14:56:38.393Z,8.13
2019-03-10T15:00:43.297Z,10.30
2019-03-10T15:04:48.184Z,8.30
2019-03-10T15:08:53.079Z,9.20
2019-03-10T15:12:57.985Z,10.03
2019-03-10T15:17:02.884Z,4.73
2019-03-10T15:21:07.790Z,6.33
2019-03-10T15:25:20.018Z,3.87
2019-03-10T15:29:24.903Z,5.60
2019-03-10T15:33:29.812Z,10.40
2019-03-10T15:37:34.709Z,5.07
2019-03-10T15:41:39.613Z,3.73
2019-03-10T15:45:44.514Z,9.47
2019-03-10T15:49:49.396Z,6.03
2019-03-10T15:53:54.296Z,9.83
2019-03-10T15:57:59.202Z,12.60
2019-03-10T16:02:04.170Z,9.33
2019-03-10T16:06:09.082Z,10.40
2019-03-10T16:10:14.909Z,7.70
2019-03-10T16:14:19.825Z,6.07
2019-03-10T16:18:24.717Z,5.73
2019-03-10T16:22:29.628Z,4.23
2019-03-10T16:26:34.503Z,2.93
2019-03-10T16:30:39.410Z,12.93
2019-03-10T16:34:44.318Z,3.07
2019-03-10T16:38:49.214Z,2.57
2019-03-10T16:42:54.182Z,3.40
2019-03-10T16:46:59.073Z,1.60
2019-03-10T16:51:03.966Z,2.27
2019-03-10T16:55:10.402Z,2.67
2019-03-10T16:59:15.292Z,1.80
2019-03-10T17:03:20.179Z,4.20
2019-03-10T17:07:25.078Z,3.13
2019-03-10T17:11:29.963Z,8.27
2019-03-10T17:15:34.858Z,6.43
2019-03-10T17:19:39.760Z,4.57
2019-03-10T17:23:44.652Z,2.83
2019-03-10T17:27:49.551Z,1.50
2019-03-10T17:31:56.078Z,2.27
2019-03-10T17:36:00.996Z,5.07
2019-03-10T17:40:11.631Z,1.93
2019-03-10T17:44:16.523Z,2.00
2019-03-10T17:48:21.409Z,1.53
2019-03-10T17:52:26.287Z,2.03
2019-03-10T17:56:31.198Z,1.77
2019-03-10T18:00:38.609Z,0.40
2019-03-10T18:04:45.011Z,0.60
2019-03-10T18:08:49.906Z,1.40
2019-03-10T18:12:54.785Z,0.93
2019-03-10T18:16:59.700Z,0.63
2019-03-10T18:21:04.595Z,1.50
2019-03-10T18:25:11.121Z,1.70
2019-03-10T18:29:16.024Z,1.43
2019-03-10T18:33:20.913Z,2.27
2019-03-10T18:37:25.808Z,2.50
2019-03-10T18:41:30.702Z,2.73
2019-03-10T18:45:35.630Z,0.80
2019-03-10T18:49:40.523Z,1.00
2019-03-10T18:53:45.406Z,1.30
2019-03-10T18:57:50.299Z,0.87
2019-03-10T19:01:55.192Z,0.93
2019-03-10T19:06:00.077Z,0.43
2019-03-10T19:10:10.066Z,0.67
2019-03-10T19:14:14.959Z,2.10
2019-03-10T19:18:20.825Z,1.90
2019-03-10T19:22:25.709Z,2.30
2019-03-10T19:26:30.601Z,3.67
2019-03-10T19:30:35.482Z,1.17
2019-03-10T19:34:40.390Z,1.60
2019-03-10T19:38:46.529Z,2.67
2019-03-10T19:42:51.421Z,2.40
2019-03-10T19:46:56.315Z,2.73
2019-03-10T19:51:01.206Z,2.23
2019-03-10T19:55:09.917Z,1.83
2019-03-10T19:59:14.864Z,6.83
2019-03-10T20:03:20.940Z,6.43
2019-03-10T20:07:25.832Z,6.07
2019-03-10T20:11:30.734Z,6.60
2019-03-10T20:15:35.623Z,3.30
2019-03-10T20:19:40.511Z,7.83
2019-03-10T20:23:45.404Z,8.27
2019-03-10T20:27:50.292Z,7.50
2019-03-10T20:31:55.179Z,3.80
2019-03-10T20:36:00.058Z,5.63
2019-03-10T20:40:10.675Z,5.20
2019-03-10T20:44:15.563Z,3.10
2019-03-10T20:48:20.460Z,3.20
2019-03-10T20:52:25.348Z,1.50
2019-03-10T20:56:30.264Z,5.47
2019-03-10T21:00:35.135Z,4.87
2019-03-10T21:04:40.012Z,2.90
2019-03-10T21:08:44.901Z,7.80
2019-03-10T21:12:50.762Z,1.47
2019-03-10T21:16:55.652Z,3.50
2019-03-10T21:21:00.543Z,1.87
2019-03-10T21:25:08.478Z,2.33
2019-03-10T21:29:13.383Z,2.20
2019-03-10T21:33:18.271Z,1.20
2019-03-10T21:37:23.174Z,1.80
2019-03-10T21:41:29.135Z,1.33
2019-03-10T21:45:34.390Z,3.97
2019-03-10T21:49:39.275Z,1.93
2019-03-10T21:53:44.168Z,1.50
2019-03-10T21:57:49.138Z,1.43
2019-03-10T22:01:54.027Z,1.33
2019-03-10T22:05:58.906Z,0.73
2019-03-10T22:10:05.145Z,2.87
2019-03-10T22:14:10.094Z,2.20
2019-03-10T22:18:14.991Z,2.23
2019-03-10T22:22:19.895Z,3.47
2019-03-10T22:26:24.773Z,2.13
2019-03-10T22:30:29.670Z,3.73
2019-03-10T22:34:34.566Z,2.20
2019-03-10T22:38:39.458Z,1.63
2019-03-10T22:42:44.350Z,3.80
2019-03-10T22:46:49.228Z,1.87
2019-03-10T22:50:54.119Z,0.63
2019-03-10T22:54:59.008Z,0.77
2019-03-10T22:59:03.900Z,1.03
2019-03-10T23:03:08.862Z,0.93
2019-03-10T23:07:13.741Z,1.27
2019-03-10T23:11:18.627Z,3.53
2019-03-10T23:15:23.514Z,1.87
2019-03-10T23:19:28.411Z,2.83
2019-03-10T23:23:33.299Z,1.77
2019-03-10T23:27:38.255Z,4.70
2019-03-10T23:31:43.143Z,5.70
2019-03-10T23:35:48.029Z,5.73
2019-03-10T23:39:52.916Z,3.47
2019-03-10T23:43:57.809Z,8.20
2019-03-10T23:48:02.689Z,8.97
2019-03-10T23:52:07.579Z,7.47
2019-03-10T23:56:12.492Z,7.10
